sensor_id;sensor_type;location;lat;lon;timestamp;temperature;humidity
2030;DHT22;1020;48.854;8.830;2023-02-24T00:01:31;8.90;99.90
2030;DHT22;1020;48.854;8.830;2023-02-24T00:04:03;8.90;99.90
2030;DHT22;1020;48.854;8.830;2023-02-24T00:06:32;8.90;99.90
2030;DHT22;1020;48.854;8.830;2023-02-24T00:09:03;8.80;99.90
2030;DHT22;1020;48.854;8.830;2023-02-24T00:11:33;8.80;99.90
2030;DHT22;1020;48.854;8.830;2023-02-24T00:14:00;8.70;99.90
2030;DHT22;1020;48.854;8.830;2023-02-24T00:16:26;8.70;99.90
2030;DHT22;1020;48.854;8.830;2023-02-24T00:18:53;8.70;99.90
2030;DHT22;1020;48.854;8.830;2023-02-24T00:21:20;8.60;99.90
2030;DHT22;1020;48.854;8.830;2023-02-24T00:23:46;8.60;99.90
2030;DHT22;1020;48.854;8.830;2023-02-24T00:26:15;8.60;99.90
2030;DHT22;1020;48.854;8.830;2023-02-24T00:28:42;8.60;99.90
2030;DHT22;1020;48.854;8.830;2023-02-24T00:31:12;8.70;99.90
2030;DHT22;1020;48.854;8.830;2023-02-24T00:33:40;8.60;99.90
2030;DHT22;1020;48.854;8.830;2023-02-24T00:36:09;8.60;99.90
2030;DHT22;1020;48.854;8.830;2023-02-24T00:38:36;8.60;99.90
2030;DHT22;1020;48.854;8.830;2023-02-24T00:41:10;8.50;99.90
2030;DHT22;1020;48.854;8.830;2023-02-24T00:43:41;8.40;99.90
2030;DHT22;1020;48.854;8.830;2023-02-24T00:46:12;8.40;99.90
2030;DHT22;1020;48.854;8.830;2023-02-24T00:48:42;8.40;99.90
2030;DHT22;1020;48.854;8.830;2023-02-24T00:51:11;8.40;99.90
2030;DHT22;1020;48.854;8.830;2023-02-24T00:53:40;8.40;99.90
2030;DHT22;1020;48.854;8.830;2023-02-24T00:56:07;8.30;99.90
2030;DHT22;1020;48.854;8.830;2023-02-24T00:58:36;8.30;99.90
2030;DHT22;1020;48.854;8.830;2023-02-24T01:01:10;8.30;99.90
2030;DHT22;1020;48.854;8.830;2023-02-24T01:03:38;8.30;99.90
2030;DHT22;1020;48.854;8.830;2023-02-24T01:06:06;8.30;99.90
2030;DHT22;1020;48.854;8.830;2023-02-24T01:08:33;8.30;99.90
2030;DHT22;1020;48.854;8.830;2023-02-24T01:11:01;8.30;99.90
2030;DHT22;1020;48.854;8.830;2023-02-24T01:14:03;8.20;99.90
2030;DHT22;1020;48.854;8.830;2023-02-24T01:16:32;8.10;99.90
2030;DHT22;1020;48.854;8.830;2023-02-24T01:18:58;8.10;99.90
2030;DHT22;1020;48.854;8.830;2023-02-24T01:21:25;8.10;99.90
2030;DHT22;1020;48.854;8.830;2023-02-24T01:23:52;8.10;99.90
2030;DHT22;1020;48.854;8.830;2023-02-24T01:26:19;8.10;99.90
2030;DHT22;1020;48.854;8.830;2023-02-24T01:28:47;8.10;99.90
2030;DHT22;1020;48.854;8.830;2023-02-24T01:31:15;8.10;99.90
2030;DHT22;1020;48.854;8.830;2023-02-24T01:33:45;8.00;99.90
2030;DHT22;1020;48.854;8.830;2023-02-24T01:36:14;8.00;99.90
2030;DHT22;1020;48.854;8.830;2023-02-24T01:38:41;7.90;99.90
2030;DHT22;1020;48.854;8.830;2023-02-24T01:41:09;8.00;99.90
2030;DHT22;1020;48.854;8.830;2023-02-24T01:43:54;8.00;99.90
2030;DHT22;1020;48.854;8.830;2023-02-24T01:46:23;8.00;99.90
2030;DHT22;1020;48.854;8.830;2023-02-24T01:48:54;8.00;99.90
2030;DHT22;1020;48.854;8.830;2023-02-24T01:51:22;8.00;99.90
2030;DHT22;1020;48.854;8.830;2023-02-24T01:53:49;8.00;99.90
2030;DHT22;1020;48.854;8.830;2023-02-24T01:56:16;8.00;99.90
2030;DHT22;1020;48.854;8.830;2023-02-24T01:58:43;8.00;99.90
2030;DHT22;1020;48.854;8.830;2023-02-24T02:01:10;8.00;99.90
2030;DHT22;1020;48.854;8.830;2023-02-24T02:03:40;8.00;99.90
2030;DHT22;1020;48.854;8.830;2023-02-24T02:06:11;8.00;99.90
2030;DHT22;1020;48.854;8.830;2023-02-24T02:08:42;8.00;99.90
2030;DHT22;1020;48.854;8.830;2023-02-24T02:11:12;8.10;99.90
2030;DHT22;1020;48.854;8.830;2023-02-24T02:13:42;8.20;99.90
2030;DHT22;1020;48.854;8.830;2023-02-24T02:19:32;8.00;99.90
2030;DHT22;1020;48.854;8.830;2023-02-24T02:22:17;8.00;99.90
2030;DHT22;1020;48.854;8.830;2023-02-24T02:24:50;8.00;99.90
2030;DHT22;1020;48.854;8.830;2023-02-24T02:27:42;7.90;99.90
2030;DHT22;1020;48.854;8.830;2023-02-24T02:30:54;7.90;99.90
2030;DHT22;1020;48.854;8.830;2023-02-24T02:34:08;7.90;99.90
2030;DHT22;1020;48.854;8.830;2023-02-24T02:36:51;8.00;99.90
2030;DHT22;1020;48.854;8.830;2023-02-24T02:39:27;8.00;99.90
2030;DHT22;1020;48.854;8.830;2023-02-24T02:42:07;8.00;99.90
2030;DHT22;1020;48.854;8.830;2023-02-24T02:44:44;8.10;99.90
2030;DHT22;1020;48.854;8.830;2023-02-24T02:47:16;8.20;99.90
2030;DHT22;1020;48.854;8.830;2023-02-24T02:49:50;8.20;99.90
2030;DHT22;1020;48.854;8.830;2023-02-24T02:52:32;8.30;99.90
2030;DHT22;1020;48.854;8.830;2023-02-24T02:55:06;8.40;99.90
2030;DHT22;1020;48.854;8.830;2023-02-24T02:57:37;8.50;99.90
2030;DHT22;1020;48.854;8.830;2023-02-24T03:00:08;8.50;99.90
2030;DHT22;1020;48.854;8.830;2023-02-24T03:02:40;8.50;99.90
2030;DHT22;1020;48.854;8.830;2023-02-24T03:05:12;8.60;99.90
2030;DHT22;1020;48.854;8.830;2023-02-24T03:07:44;8.40;99.90
2030;DHT22;1020;48.854;8.830;2023-02-24T03:10:16;8.30;99.90
2030;DHT22;1020;48.854;8.830;2023-02-24T03:12:49;8.20;99.90
2030;DHT22;1020;48.854;8.830;2023-02-24T03:15:19;8.20;99.90
2030;DHT22;1020;48.854;8.830;2023-02-24T03:17:50;8.20;99.90
2030;DHT22;1020;48.854;8.830;2023-02-24T03:20:23;8.20;99.90
2030;DHT22;1020;48.854;8.830;2023-02-24T03:22:57;8.40;99.90
2030;DHT22;1020;48.854;8.830;2023-02-24T03:25:33;8.40;99.90
2030;DHT22;1020;48.854;8.830;2023-02-24T03:28:07;8.30;99.90
2030;DHT22;1020;48.854;8.830;2023-02-24T03:30:42;8.30;99.90
2030;DHT22;1020;48.854;8.830;2023-02-24T03:33:18;8.10;99.90
2030;DHT22;1020;48.854;8.830;2023-02-24T03:35:50;8.10;99.90
2030;DHT22;1020;48.854;8.830;2023-02-24T03:38:17;8.00;99.90
2030;DHT22;1020;48.854;8.830;2023-02-24T03:40:47;8.00;99.90
2030;DHT22;1020;48.854;8.830;2023-02-24T03:43:17;8.00;99.90
2030;DHT22;1020;48.854;8.830;2023-02-24T03:45:46;7.90;99.90
2030;DHT22;1020;48.854;8.830;2023-02-24T03:48:14;7.80;99.90
2030;DHT22;1020;48.854;8.830;2023-02-24T03:50:42;7.80;99.90
2030;DHT22;1020;48.854;8.830;2023-02-24T03:53:23;7.70;99.90
2030;DHT22;1020;48.854;8.830;2023-02-24T03:56:02;7.70;99.90
2030;DHT22;1020;48.854;8.830;2023-02-24T03:58:37;7.70;99.90
2030;DHT22;1020;48.854;8.830;2023-02-24T04:01:10;7.70;99.90
2030;DHT22;1020;48.854;8.830;2023-02-24T04:03:45;7.80;99.90
2030;DHT22;1020;48.854;8.830;2023-02-24T04:06:19;7.70;99.90
2030;DHT22;1020;48.854;8.830;2023-02-24T04:08:52;7.70;99.90
2030;DHT22;1020;48.854;8.830;2023-02-24T04:11:28;7.60;99.90
2030;DHT22;1020;48.854;8.830;2023-02-24T04:14:01;7.60;99.90
2030;DHT22;1020;48.854;8.830;2023-02-24T04:16:36;7.60;99.90
2030;DHT22;1020;48.854;8.830;2023-02-24T04:19:08;7.60;99.90
2030;DHT22;1020;48.854;8.830;2023-02-24T04:21:36;7.60;99.90
2030;DHT22;1020;48.854;8.830;2023-02-24T04:24:07;7.60;99.90
2030;DHT22;1020;48.854;8.830;2023-02-24T04:26:40;7.60;99.90
2030;DHT22;1020;48.854;8.830;2023-02-24T04:29:10;7.60;99.90
2030;DHT22;1020;48.854;8.830;2023-02-24T04:31:42;7.60;99.90
2030;DHT22;1020;48.854;8.830;2023-02-24T04:34:10;7.40;99.90
2030;DHT22;1020;48.854;8.830;2023-02-24T04:36:42;7.50;99.90
2030;DHT22;1020;48.854;8.830;2023-02-24T04:39:15;7.40;99.90
2030;DHT22;1020;48.854;8.830;2023-02-24T04:41:43;7.50;99.90
2030;DHT22;1020;48.854;8.830;2023-02-24T04:44:10;7.50;99.90
2030;DHT22;1020;48.854;8.830;2023-02-24T04:46:37;7.30;99.90
2030;DHT22;1020;48.854;8.830;2023-02-24T04:49:04;7.20;99.90
2030;DHT22;1020;48.854;8.830;2023-02-24T04:51:31;7.30;99.90
2030;DHT22;1020;48.854;8.830;2023-02-24T04:53:58;7.20;99.90
2030;DHT22;1020;48.854;8.830;2023-02-24T04:56:27;7.20;99.90
2030;DHT22;1020;48.854;8.830;2023-02-24T04:58:54;7.00;99.90
2030;DHT22;1020;48.854;8.830;2023-02-24T05:01:21;7.00;99.90
2030;DHT22;1020;48.854;8.830;2023-02-24T05:03:48;7.00;99.90
2030;DHT22;1020;48.854;8.830;2023-02-24T05:06:16;7.10;99.90
2030;DHT22;1020;48.854;8.830;2023-02-24T05:08:43;7.10;99.90
2030;DHT22;1020;48.854;8.830;2023-02-24T05:11:12;7.10;99.90
2030;DHT22;1020;48.854;8.830;2023-02-24T05:13:42;7.10;99.90
2030;DHT22;1020;48.854;8.830;2023-02-24T05:16:12;7.00;99.90
2030;DHT22;1020;48.854;8.830;2023-02-24T05:18:40;7.10;99.90
2030;DHT22;1020;48.854;8.830;2023-02-24T05:21:08;7.10;99.90
2030;DHT22;1020;48.854;8.830;2023-02-24T05:23:54;6.80;99.90
2030;DHT22;1020;48.854;8.830;2023-02-24T05:26:23;6.80;99.90
2030;DHT22;1020;48.854;8.830;2023-02-24T05:28:53;6.80;99.90
2030;DHT22;1020;48.854;8.830;2023-02-24T05:31:22;6.80;99.90
2030;DHT22;1020;48.854;8.830;2023-02-24T05:33:52;6.80;99.90
2030;DHT22;1020;48.854;8.830;2023-02-24T05:36:20;6.80;99.90
2030;DHT22;1020;48.854;8.830;2023-02-24T05:38:49;6.90;99.90
2030;DHT22;1020;48.854;8.830;2023-02-24T05:41:20;6.90;99.90
2030;DHT22;1020;48.854;8.830;2023-02-24T05:43:49;6.90;99.90
2030;DHT22;1020;48.854;8.830;2023-02-24T05:46:21;7.00;99.90
2030;DHT22;1020;48.854;8.830;2023-02-24T05:48:53;7.00;99.90
2030;DHT22;1020;48.854;8.830;2023-02-24T05:51:22;6.90;99.90
2030;DHT22;1020;48.854;8.830;2023-02-24T05:53:49;6.90;99.90
2030;DHT22;1020;48.854;8.830;2023-02-24T05:56:20;6.90;99.90
2030;DHT22;1020;48.854;8.830;2023-02-24T05:58:47;7.00;99.90
2030;DHT22;1020;48.854;8.830;2023-02-24T06:01:14;6.90;99.90
2030;DHT22;1020;48.854;8.830;2023-02-24T06:03:45;6.90;99.90
2030;DHT22;1020;48.854;8.830;2023-02-24T06:06:12;7.00;99.90
2030;DHT22;1020;48.854;8.830;2023-02-24T06:08:40;7.10;99.90
2030;DHT22;1020;48.854;8.830;2023-02-24T06:11:15;7.10;99.90
2030;DHT22;1020;48.854;8.830;2023-02-24T06:13:43;7.10;99.90
2030;DHT22;1020;48.854;8.830;2023-02-24T06:16:13;7.10;99.90
2030;DHT22;1020;48.854;8.830;2023-02-24T06:18:40;7.10;99.90
2030;DHT22;1020;48.854;8.830;2023-02-24T06:21:08;7.00;99.90
2030;DHT22;1020;48.854;8.830;2023-02-24T06:23:37;7.00;99.90
2030;DHT22;1020;48.854;8.830;2023-02-24T06:26:05;7.00;99.90
2030;DHT22;1020;48.854;8.830;2023-02-24T06:28:38;7.10;99.90
2030;DHT22;1020;48.854;8.830;2023-02-24T06:31:05;7.20;99.90
2030;DHT22;1020;48.854;8.830;2023-02-24T06:33:32;7.00;99.90
2030;DHT22;1020;48.854;8.830;2023-02-24T06:36:00;6.90;99.90
2030;DHT22;1020;48.854;8.830;2023-02-24T06:38:30;6.90;99.90
2030;DHT22;1020;48.854;8.830;2023-02-24T06:40:57;6.90;99.90
2030;DHT22;1020;48.854;8.830;2023-02-24T06:43:25;7.10;99.90
2030;DHT22;1020;48.854;8.830;2023-02-24T06:45:51;7.10;99.90
2030;DHT22;1020;48.854;8.830;2023-02-24T06:48:19;7.10;99.90
2030;DHT22;1020;48.854;8.830;2023-02-24T06:50:47;7.00;99.90
2030;DHT22;1020;48.854;8.830;2023-02-24T06:53:14;6.90;99.90
2030;DHT22;1020;48.854;8.830;2023-02-24T06:55:45;6.80;99.90
2030;DHT22;1020;48.854;8.830;2023-02-24T06:58:15;6.90;99.90
2030;DHT22;1020;48.854;8.830;2023-02-24T07:00:43;7.10;99.90
2030;DHT22;1020;48.854;8.830;2023-02-24T07:03:22;7.10;99.90
2030;DHT22;1020;48.854;8.830;2023-02-24T07:05:51;6.90;99.90
2030;DHT22;1020;48.854;8.830;2023-02-24T07:08:36;6.80;99.90
2030;DHT22;1020;48.854;8.830;2023-02-24T07:11:04;6.80;99.90
2030;DHT22;1020;48.854;8.830;2023-02-24T07:13:32;6.80;99.90
2030;DHT22;1020;48.854;8.830;2023-02-24T07:16:00;6.90;99.90
2030;DHT22;1020;48.854;8.830;2023-02-24T07:18:32;7.00;99.90
2030;DHT22;1020;48.854;8.830;2023-02-24T07:21:00;7.10;99.90
2030;DHT22;1020;48.854;8.830;2023-02-24T07:23:30;7.20;99.90
2030;DHT22;1020;48.854;8.830;2023-02-24T07:25:56;7.00;99.90
2030;DHT22;1020;48.854;8.830;2023-02-24T07:28:25;6.80;99.90
2030;DHT22;1020;48.854;8.830;2023-02-24T07:30:52;6.90;99.90
2030;DHT22;1020;48.854;8.830;2023-02-24T07:33:19;7.10;99.90
2030;DHT22;1020;48.854;8.830;2023-02-24T07:35:49;7.20;99.90
2030;DHT22;1020;48.854;8.830;2023-02-24T07:38:16;7.30;99.90
2030;DHT22;1020;48.854;8.830;2023-02-24T07:40:47;7.40;99.90
2030;DHT22;1020;48.854;8.830;2023-02-24T07:43:14;7.40;99.90
2030;DHT22;1020;48.854;8.830;2023-02-24T07:45:42;7.40;99.90
2030;DHT22;1020;48.854;8.830;2023-02-24T07:48:11;7.30;99.90
2030;DHT22;1020;48.854;8.830;2023-02-24T07:50:39;7.30;99.90
2030;DHT22;1020;48.854;8.830;2023-02-24T07:53:06;7.20;99.90
2030;DHT22;1020;48.854;8.830;2023-02-24T07:55:34;7.20;99.90
2030;DHT22;1020;48.854;8.830;2023-02-24T07:58:01;7.10;99.90
2030;DHT22;1020;48.854;8.830;2023-02-24T08:00:30;7.30;99.90
2030;DHT22;1020;48.854;8.830;2023-02-24T08:03:15;7.20;99.90
2030;DHT22;1020;48.854;8.830;2023-02-24T08:05:42;7.10;99.90
2030;DHT22;1020;48.854;8.830;2023-02-24T08:08:09;7.30;99.90
2030;DHT22;1020;48.854;8.830;2023-02-24T08:10:39;7.20;99.90
2030;DHT22;1020;48.854;8.830;2023-02-24T08:13:06;7.30;99.90
2030;DHT22;1020;48.854;8.830;2023-02-24T08:15:36;7.40;99.90
2030;DHT22;1020;48.854;8.830;2023-02-24T08:18:03;7.40;99.90
2030;DHT22;1020;48.854;8.830;2023-02-24T08:20:31;7.50;99.90
2030;DHT22;1020;48.854;8.830;2023-02-24T08:23:16;7.50;99.90
2030;DHT22;1020;48.854;8.830;2023-02-24T08:25:43;7.60;99.90
2030;DHT22;1020;48.854;8.830;2023-02-24T08:28:10;7.60;99.90
2030;DHT22;1020;48.854;8.830;2023-02-24T08:30:39;7.80;99.90
2030;DHT22;1020;48.854;8.830;2023-02-24T08:33:12;7.80;99.90
2030;DHT22;1020;48.854;8.830;2023-02-24T08:35:43;7.70;99.90
2030;DHT22;1020;48.854;8.830;2023-02-24T08:38:11;7.70;99.90
2030;DHT22;1020;48.854;8.830;2023-02-24T08:40:42;7.80;99.90
2030;DHT22;1020;48.854;8.830;2023-02-24T08:43:19;7.90;99.90
2030;DHT22;1020;48.854;8.830;2023-02-24T08:45:58;8.30;99.90
2030;DHT22;1020;48.854;8.830;2023-02-24T08:48:29;8.90;99.90
2030;DHT22;1020;48.854;8.830;2023-02-24T08:51:09;9.20;99.90
2030;DHT22;1020;48.854;8.830;2023-02-24T08:53:37;9.50;99.90
2030;DHT22;1020;48.854;8.830;2023-02-24T08:56:07;9.70;68.80
2030;DHT22;1020;48.854;8.830;2023-02-24T08:58:38;9.70;81.90
2030;DHT22;1020;48.854;8.830;2023-02-24T09:01:13;9.70;78.70
2030;DHT22;1020;48.854;8.830;2023-02-24T09:03:44;9.60;92.40
2030;DHT22;1020;48.854;8.830;2023-02-24T09:06:15;9.70;99.90
2030;DHT22;1020;48.854;8.830;2023-02-24T09:08:44;9.80;99.90
2030;DHT22;1020;48.854;8.830;2023-02-24T09:11:13;9.70;91.40
2030;DHT22;1020;48.854;8.830;2023-02-24T09:13:41;9.70;99.90
2030;DHT22;1020;48.854;8.830;2023-02-24T09:16:17;9.70;99.90
2030;DHT22;1020;48.854;8.830;2023-02-24T09:18:44;9.60;99.60
2030;DHT22;1020;48.854;8.830;2023-02-24T09:21:32;9.70;99.90
2030;DHT22;1020;48.854;8.830;2023-02-24T09:24:17;9.80;99.90
2030;DHT22;1020;48.854;8.830;2023-02-24T09:26:51;10.00;99.90
2030;DHT22;1020;48.854;8.830;2023-02-24T09:29:23;10.20;99.60
2030;DHT22;1020;48.854;8.830;2023-02-24T09:31:59;10.30;77.20
2030;DHT22;1020;48.854;8.830;2023-02-24T09:34:31;10.30;83.40
2030;DHT22;1020;48.854;8.830;2023-02-24T09:37:00;10.40;69.90
2030;DHT22;1020;48.854;8.830;2023-02-24T09:39:29;10.30;62.00
2030;DHT22;1020;48.854;8.830;2023-02-24T09:42:18;10.30;90.40
2030;DHT22;1020;48.854;8.830;2023-02-24T09:45:01;10.30;74.00
2030;DHT22;1020;48.854;8.830;2023-02-24T09:47:33;10.30;81.50
2030;DHT22;1020;48.854;8.830;2023-02-24T09:50:27;10.30;91.20
2030;DHT22;1020;48.854;8.830;2023-02-24T09:53:14;10.20;75.20
2030;DHT22;1020;48.854;8.830;2023-02-24T09:55:48;10.10;82.10
2030;DHT22;1020;48.854;8.830;2023-02-24T09:58:34;10.00;63.90
2030;DHT22;1020;48.854;8.830;2023-02-24T10:01:18;9.60;96.80
2030;DHT22;1020;48.854;8.830;2023-02-24T10:03:50;9.20;99.90
2030;DHT22;1020;48.854;8.830;2023-02-24T10:06:30;8.90;99.90
2030;DHT22;1020;48.854;8.830;2023-02-24T10:09:08;8.80;99.90
2030;DHT22;1020;48.854;8.830;2023-02-24T10:11:41;8.60;99.90
2030;DHT22;1020;48.854;8.830;2023-02-24T10:14:24;8.50;99.90
2030;DHT22;1020;48.854;8.830;2023-02-24T10:16:54;10.30;99.90
2030;DHT22;1020;48.854;8.830;2023-02-24T10:19:35;6.60;99.90
2030;DHT22;1020;48.854;8.830;2023-02-24T10:22:12;8.70;99.90
2030;DHT22;1020;48.854;8.830;2023-02-24T10:24:57;8.60;99.90
2030;DHT22;1020;48.854;8.830;2023-02-24T10:27:42;8.40;99.90
2030;DHT22;1020;48.854;8.830;2023-02-24T10:30:27;8.50;99.90
2030;DHT22;1020;48.854;8.830;2023-02-24T10:33:20;8.70;99.90
2030;DHT22;1020;48.854;8.830;2023-02-24T10:36:02;8.80;99.90
2030;DHT22;1020;48.854;8.830;2023-02-24T10:38:34;8.90;99.90
2030;DHT22;1020;48.854;8.830;2023-02-24T10:41:03;8.80;99.90
2030;DHT22;1020;48.854;8.830;2023-02-24T10:43:32;9.00;99.90
2030;DHT22;1020;48.854;8.830;2023-02-24T10:46:19;9.00;99.90
2030;DHT22;1020;48.854;8.830;2023-02-24T10:48:50;9.10;99.90
2030;DHT22;1020;48.854;8.830;2023-02-24T10:51:18;9.30;99.90
2030;DHT22;1020;48.854;8.830;2023-02-24T10:53:48;9.50;99.90
2030;DHT22;1020;48.854;8.830;2023-02-24T10:56:39;9.50;99.90
2030;DHT22;1020;48.854;8.830;2023-02-24T10:59:19;9.50;99.90
2030;DHT22;1020;48.854;8.830;2023-02-24T11:02:16;8.50;99.90
2030;DHT22;1020;48.854;8.830;2023-02-24T11:04:55;9.50;95.50
2030;DHT22;1020;48.854;8.830;2023-02-24T11:07:41;9.60;99.90
2030;DHT22;1020;48.854;8.830;2023-02-24T11:10:20;9.60;97.10
2030;DHT22;1020;48.854;8.830;2023-02-24T11:12:54;9.40;89.10
2030;DHT22;1020;48.854;8.830;2023-02-24T11:15:42;8.30;99.90
2030;DHT22;1020;48.854;8.830;2023-02-24T11:18:28;9.70;99.90
2030;DHT22;1020;48.854;8.830;2023-02-24T11:20:58;9.80;93.40
2030;DHT22;1020;48.854;8.830;2023-02-24T11:23:29;9.40;66.90
2030;DHT22;1020;48.854;8.830;2023-02-24T11:25:58;9.30;97.10
2030;DHT22;1020;48.854;8.830;2023-02-24T11:28:50;9.30;99.90
2030;DHT22;1020;48.854;8.830;2023-02-24T11:31:33;9.20;92.00
2030;DHT22;1020;48.854;8.830;2023-02-24T11:34:06;9.10;96.70
2030;DHT22;1020;48.854;8.830;2023-02-24T11:36:42;9.10;99.90
2030;DHT22;1020;48.854;8.830;2023-02-24T11:39:33;8.90;97.40
2030;DHT22;1020;48.854;8.830;2023-02-24T11:42:06;9.00;99.90
2030;DHT22;1020;48.854;8.830;2023-02-24T11:44:45;9.10;96.70
2030;DHT22;1020;48.854;8.830;2023-02-24T11:47:19;9.10;93.20
2030;DHT22;1020;48.854;8.830;2023-02-24T11:52:33;9.40;99.70
2030;DHT22;1020;48.854;8.830;2023-02-24T11:55:04;9.50;61.90
2030;DHT22;1020;48.854;8.830;2023-02-24T11:57:44;9.60;44.50
2030;DHT22;1020;48.854;8.830;2023-02-24T12:00:18;9.50;1.00
2030;DHT22;1020;48.854;8.830;2023-02-24T12:02:50;9.50;19.30
2030;DHT22;1020;48.854;8.830;2023-02-24T12:05:21;8.00;36.70
2030;DHT22;1020;48.854;8.830;2023-02-24T12:07:52;10.00;12.60
2030;DHT22;1020;48.854;8.830;2023-02-24T12:10:22;10.10;1.00
2030;DHT22;1020;48.854;8.830;2023-02-24T12:12:57;10.20;7.70
2030;DHT22;1020;48.854;8.830;2023-02-24T12:15:30;10.40;1.00
2030;DHT22;1020;48.854;8.830;2023-02-24T12:18:03;10.50;1.00
2030;DHT22;1020;48.854;8.830;2023-02-24T12:20:35;10.60;1.00
2030;DHT22;1020;48.854;8.830;2023-02-24T12:23:12;10.60;1.00
2030;DHT22;1020;48.854;8.830;2023-02-24T12:26:03;10.50;1.00
2030;DHT22;1020;48.854;8.830;2023-02-24T12:28:53;10.60;1.00
2030;DHT22;1020;48.854;8.830;2023-02-24T12:31:30;11.00;1.00
2030;DHT22;1020;48.854;8.830;2023-02-24T12:34:05;11.40;1.00
2030;DHT22;1020;48.854;8.830;2023-02-24T12:36:44;12.10;1.00
2030;DHT22;1020;48.854;8.830;2023-02-24T12:39:19;11.60;1.00
2030;DHT22;1020;48.854;8.830;2023-02-24T12:41:58;11.70;1.00
2030;DHT22;1020;48.854;8.830;2023-02-24T12:44:33;12.70;1.00
2030;DHT22;1020;48.854;8.830;2023-02-24T12:47:08;11.30;1.00
2030;DHT22;1020;48.854;8.830;2023-02-24T12:49:55;11.20;1.00
2030;DHT22;1020;48.854;8.830;2023-02-24T12:52:30;10.90;1.00
2030;DHT22;1020;48.854;8.830;2023-02-24T12:55:06;10.50;1.00
2030;DHT22;1020;48.854;8.830;2023-02-24T12:57:41;10.10;1.00
2030;DHT22;1020;48.854;8.830;2023-02-24T13:00:13;10.10;11.30
2030;DHT22;1020;48.854;8.830;2023-02-24T13:02:52;9.90;17.00
2030;DHT22;1020;48.854;8.830;2023-02-24T13:05:23;9.80;1.00
2030;DHT22;1020;48.854;8.830;2023-02-24T13:08:09;9.70;21.30
2030;DHT22;1020;48.854;8.830;2023-02-24T13:10:42;8.30;36.20
2030;DHT22;1020;48.854;8.830;2023-02-24T13:13:18;9.40;23.80
2030;DHT22;1020;48.854;8.830;2023-02-24T13:15:50;9.40;41.30
2030;DHT22;1020;48.854;8.830;2023-02-24T13:18:27;9.40;50.10
2030;DHT22;1020;48.854;8.830;2023-02-24T13:21:06;9.30;50.80
2030;DHT22;1020;48.854;8.830;2023-02-24T13:23:34;9.40;52.20
2030;DHT22;1020;48.854;8.830;2023-02-24T13:26:02;9.50;61.70
2030;DHT22;1020;48.854;8.830;2023-02-24T13:28:30;9.40;59.20
2030;DHT22;1020;48.854;8.830;2023-02-24T13:31:01;9.30;45.30
2030;DHT22;1020;48.854;8.830;2023-02-24T13:33:33;9.40;35.00
2030;DHT22;1020;48.854;8.830;2023-02-24T13:36:15;9.50;31.90
2030;DHT22;1020;48.854;8.830;2023-02-24T13:38:46;9.50;22.00
2030;DHT22;1020;48.854;8.830;2023-02-24T13:41:33;9.50;22.20
2030;DHT22;1020;48.854;8.830;2023-02-24T13:44:02;11.40;36.10
2030;DHT22;1020;48.854;8.830;2023-02-24T13:46:34;11.60;27.70
2030;DHT22;1020;48.854;8.830;2023-02-24T13:49:22;9.40;36.20
2030;DHT22;1020;48.854;8.830;2023-02-24T13:51:56;9.30;37.90
2030;DHT22;1020;48.854;8.830;2023-02-24T13:54:56;9.30;35.30
2030;DHT22;1020;48.854;8.830;2023-02-24T14:00:27;9.20;39.60
2030;DHT22;1020;48.854;8.830;2023-02-24T14:02:57;6.90;32.30
2030;DHT22;1020;48.854;8.830;2023-02-24T14:05:28;9.30;41.30
2030;DHT22;1020;48.854;8.830;2023-02-24T14:07:55;9.20;48.60
2030;DHT22;1020;48.854;8.830;2023-02-24T14:10:25;9.20;50.90
2030;DHT22;1020;48.854;8.830;2023-02-24T14:13:04;9.20;47.20
2030;DHT22;1020;48.854;8.830;2023-02-24T14:15:32;9.20;43.40
2030;DHT22;1020;48.854;8.830;2023-02-24T14:18:01;9.30;48.30
2030;DHT22;1020;48.854;8.830;2023-02-24T14:20:32;9.20;52.60
2030;DHT22;1020;48.854;8.830;2023-02-24T14:22:59;9.20;42.40
2030;DHT22;1020;48.854;8.830;2023-02-24T14:25:35;9.20;49.20
2030;DHT22;1020;48.854;8.830;2023-02-24T14:28:03;9.20;47.90
2030;DHT22;1020;48.854;8.830;2023-02-24T14:30:33;9.10;46.70
2030;DHT22;1020;48.854;8.830;2023-02-24T14:33:00;9.10;41.10
2030;DHT22;1020;48.854;8.830;2023-02-24T14:35:34;10.20;42.50
2030;DHT22;1020;48.854;8.830;2023-02-24T14:38:01;9.00;46.80
2030;DHT22;1020;48.854;8.830;2023-02-24T14:40:30;9.00;47.10
2030;DHT22;1020;48.854;8.830;2023-02-24T14:42:57;9.00;50.60
2030;DHT22;1020;48.854;8.830;2023-02-24T14:45:26;8.90;47.10
2030;DHT22;1020;48.854;8.830;2023-02-24T14:47:54;9.00;49.80
2030;DHT22;1020;48.854;8.830;2023-02-24T14:50:23;8.90;47.00
2030;DHT22;1020;48.854;8.830;2023-02-24T14:52:55;8.90;62.30
2030;DHT22;1020;48.854;8.830;2023-02-24T14:55:26;8.90;55.60
2030;DHT22;1020;48.854;8.830;2023-02-24T14:57:57;8.90;55.00
2030;DHT22;1020;48.854;8.830;2023-02-24T15:00:28;8.80;52.60
2030;DHT22;1020;48.854;8.830;2023-02-24T15:03:10;8.70;71.10
2030;DHT22;1020;48.854;8.830;2023-02-24T15:05:40;8.80;86.70
2030;DHT22;1020;48.854;8.830;2023-02-24T15:08:28;8.90;71.10
2030;DHT22;1020;48.854;8.830;2023-02-24T15:10:56;8.80;78.70
2030;DHT22;1020;48.854;8.830;2023-02-24T15:13:28;8.80;79.50
2030;DHT22;1020;48.854;8.830;2023-02-24T15:16:04;6.70;92.50
2030;DHT22;1020;48.854;8.830;2023-02-24T15:18:31;8.70;86.60
2030;DHT22;1020;48.854;8.830;2023-02-24T15:20:59;8.70;88.80
2030;DHT22;1020;48.854;8.830;2023-02-24T15:23:31;8.60;88.50
2030;DHT22;1020;48.854;8.830;2023-02-24T15:25:58;8.60;96.90
2030;DHT22;1020;48.854;8.830;2023-02-24T15:28:26;8.70;99.90
2030;DHT22;1020;48.854;8.830;2023-02-24T15:31:01;8.60;91.30
2030;DHT22;1020;48.854;8.830;2023-02-24T15:33:34;8.60;97.30
2030;DHT22;1020;48.854;8.830;2023-02-24T15:36:05;8.60;99.90
2030;DHT22;1020;48.854;8.830;2023-02-24T15:38:37;8.60;99.30
2030;DHT22;1020;48.854;8.830;2023-02-24T15:41:07;11.10;99.90
2030;DHT22;1020;48.854;8.830;2023-02-24T15:43:36;8.60;99.90
2030;DHT22;1020;48.854;8.830;2023-02-24T15:46:14;6.40;99.90
2030;DHT22;1020;48.854;8.830;2023-02-24T15:48:41;8.50;99.90
2030;DHT22;1020;48.854;8.830;2023-02-24T15:51:17;8.40;99.90
2030;DHT22;1020;48.854;8.830;2023-02-24T15:53:47;8.30;99.90
2030;DHT22;1020;48.854;8.830;2023-02-24T15:56:14;8.30;99.90
2030;DHT22;1020;48.854;8.830;2023-02-24T15:58:42;8.20;99.90
2030;DHT22;1020;48.854;8.830;2023-02-24T16:01:10;8.10;99.90
2030;DHT22;1020;48.854;8.830;2023-02-24T16:03:37;8.00;99.90
2030;DHT22;1020;48.854;8.830;2023-02-24T16:06:05;7.80;99.90
2030;DHT22;1020;48.854;8.830;2023-02-24T16:08:32;7.40;99.90
2030;DHT22;1020;48.854;8.830;2023-02-24T16:11:11;7.60;99.90
2030;DHT22;1020;48.854;8.830;2023-02-24T16:13:38;7.60;99.90
2030;DHT22;1020;48.854;8.830;2023-02-24T16:16:08;6.20;99.90
2030;DHT22;1020;48.854;8.830;2023-02-24T16:18:36;7.60;99.90
2030;DHT22;1020;48.854;8.830;2023-02-24T16:21:03;7.50;99.90
2030;DHT22;1020;48.854;8.830;2023-02-24T16:23:31;7.50;99.90
2030;DHT22;1020;48.854;8.830;2023-02-24T16:26:06;7.40;99.90
2030;DHT22;1020;48.854;8.830;2023-02-24T16:28:34;7.40;99.90
2030;DHT22;1020;48.854;8.830;2023-02-24T16:31:01;7.40;99.90
2030;DHT22;1020;48.854;8.830;2023-02-24T16:33:28;6.30;99.90
2030;DHT22;1020;48.854;8.830;2023-02-24T16:35:55;7.30;99.90
2030;DHT22;1020;48.854;8.830;2023-02-24T16:38:23;5.50;99.90
2030;DHT22;1020;48.854;8.830;2023-02-24T16:40:52;7.20;99.90
2030;DHT22;1020;48.854;8.830;2023-02-24T16:43:19;5.70;99.90
2030;DHT22;1020;48.854;8.830;2023-02-24T16:45:47;6.10;99.90
2030;DHT22;1020;48.854;8.830;2023-02-24T16:48:18;9.00;99.90
2030;DHT22;1020;48.854;8.830;2023-02-24T16:50:46;7.10;99.90
2030;DHT22;1020;48.854;8.830;2023-02-24T16:53:15;7.00;99.90
2030;DHT22;1020;48.854;8.830;2023-02-24T16:55:44;7.00;99.90
2030;DHT22;1020;48.854;8.830;2023-02-24T16:58:18;6.10;99.90
2030;DHT22;1020;48.854;8.830;2023-02-24T17:00:49;7.00;99.90